High Wych Weather

NOAA Style Reports for High Wych, Hertfordshire


Report for 2012 Aug
                   Monthly Climatological Summary for Aug 2012

Name: High Wych Weather   City: High Wych, Sawbridgeworth   State: Herts
Elevation: 72 m  Lat: N 51° 48' 26"   Lon: E 000° 07' 20"

                  Temperature (°C), Rain (mm), Wind Speed (mph)

                                      Heat  Cool        Avg
    Mean                              Deg   Deg         Wind                 Dom
Day Temp  High   Time   Low    Time   Days  Days  Rain  Speed High   Time    Dir
----------------------------------------------------------------------------------
 1  18.3  23.5   00:00  13.0   00:00   0.0   0.0   0.3  ----  14.5   00:00   ---
 2  18.8  23.2   00:00  14.3   00:00   0.0   0.0   3.6  ----  14.5   00:00   ---
 3  18.4  25.1   00:00  11.8   00:00   0.0   0.0   0.0  ----  13.9   00:00   ---
 4  14.9  21.5   00:00   8.4   00:00   0.0   0.0   0.0  ----  16.3   00:00   ---
 5  17.3  23.8   00:00  10.7   00:00   0.0   0.0   7.9  ----   7.8   00:00   ---
 6  18.4  24.1   00:00  12.8   00:00   0.0   0.0   1.5  ----   9.7   00:00   ---
 7  16.1  22.8   00:00   9.4   00:00   0.0   0.0   0.5  ----   9.7   00:00   ---
 8  19.4  25.1   00:00  13.7   00:00   0.0   0.0   0.0  ----   9.1   00:00   ---
 9  19.8  27.2   00:00  12.4   00:00   0.0   0.0   0.5  ----   7.8   00:00   ---
10  20.1  28.0   00:00  12.1   00:00   0.0   0.0   0.0  ----   7.2   00:00   ---
11  18.1  24.4   00:00  11.7   00:00   0.0   0.0   0.0  ----  13.3   00:00   ---
12  20.4  27.5   00:00  13.4   00:00   0.0   0.0   0.0  ----  11.4   00:00   ---
13  15.4  22.0   00:00  15.2   00:00   0.0   0.0   0.0  ----   4.8   00:00   ---
14  18.4  24.9   00:00  15.5   00:00   0.0   0.0   0.9  ----   4.8   00:00   ---
15  20.2  21.6   00:00  15.8   00:00   0.0   0.0   1.8  ----   9.4   00:00   ---
16  18.6  21.4   00:00  11.5   00:00   0.0   0.0   0.1  ----   7.8   00:00   ---
17  19.9  27.5   00:00  13.5   00:00   0.0   0.0   0.0  ----   7.3   00:00   ---
18  24.0  33.1   00:00  17.3   02:16   0.0   0.0   0.0  ----   6.1   00:00   ---
19  24.8  28.8   00:00  14.4   00:00   0.0   0.0   0.6  ----   5.3   00:00   ---
20  20.2  24.3   00:00  14.1   00:00   0.0   0.0   0.0  ----   6.6   00:00   ---
21  17.6  21.4   00:00  12.6   00:00   0.0   0.0   1.3  ----   7.3   00:00   ---
22  17.0  24.0   00:00  12.0   00:00   0.0   0.0   0.0  ----   9.7   00:00   ---
23  17.0  24.0   00:00  11.0   00:00   0.0   0.0   0.0  ----   6.6   00:00   ---
24  17.0  24.0   00:00  13.0   00:00   0.0   0.0   0.0  ----   9.7   00:00   ---
25  17.0  23.0   00:00  14.0   00:00   0.0   0.0   4.6  ----   9.1   00:00   ---
26  17.0  24.0   00:00  11.0   00:00   0.0   0.0   0.0  ----   9.1   00:00   ---
27  17.0  22.0   00:00  10.0   00:00   0.0   0.0   0.0  ----  12.7   00:00   ---
28  19.0  25.0   00:00  13.0   00:00   0.0   0.0   0.3  ----  10.3   00:00   ---
29  21.6  22.3   00:00  12.1   00:00   0.0   0.0   4.6  ----  16.3   00:00   ---
30  12.7  18.2   12:48   7.2   00:00   0.0   0.0   1.3  ----  17.5   00:00   ---
31  13.0  20.2   00:00   5.7   05:58   0.0   0.0   0.0  ----  13.3   00:00   ---
----------------------------------------------------------------------------------
    18.3  33.1    18     5.7    31     0.0   0.0  29.8  ----  17.5    30     ---

Max >=  27.0:  6
Max <=   0.0:  0
Min <=   0.0:  0
Min <=  -5.0:  0
Max Rain: 7.9 on day 5
Days of Rain: 14 (>= 0.2 mm)  4 (>= 2.0 mm)  0 (>= 15.0 mm)
Heat Base: 15.0  Cool Base: 15.0  Method: Integration
:now::gauges::console::today/yesterday::month/year::records: noaa reports::annual data::wind map::monthly records::trends::longrange forecast::rainfall radar::webcam